International TAF

Brunei, China, Hong Kong, Malaysia, Philippines, Taiwan

The availability of aerodrome forecasts from overseas locations is dependent on the regular international exchange of data. Some locations may at times be absent. If this problem persists, please advise webav@bom.gov.au

 back to top

ZSPD 25/01/2020 UTC

TAF ZSPD 252110Z 2600/2624 01007MPS 6000 -RA BKN006 OVC033
TX10/2605Z TN07/2618Z BECMG 2604/2605 BKN011 OVC033

WIDD 25/01/2020 UTC

TAF WIDD 252300Z 2600/2624 03004KT 9999 FEW014
BECMG 2603/2605 05014KT SCT014

WAMM 25/01/2020 UTC

TAF WAMM 252300Z 2600/2706 35010KT 9999 SCT022
BECMG 2609/2611 VRB02KT

WBSB 25/01/2020 UTC

TAF WBSB 252250Z 2600/2706 20003KT 9999 FEW015 FEW016CB
BECMG 2603/2605 01010KT SCT016 FEW017CB

WBKK 25/01/2020 UTC

TAF WBKK 252300Z 2600/2700 32005KT 9999 FEW015
PROB40 TEMPO 2607/2610 5000 TSRA FEW014 FEW017CB SCT035

WBGG 25/01/2020 UTC

TAF WBGG 252300Z 2600/2700 34006KT 9999 FEW020

VHHH 25/01/2020 UTC

TAF VHHH 252300Z 2600/2706 36015KT 7000 FEW015 SCT035 TX15/2606Z
TX15/2706Z TN11/2623Z TEMPO 2600/2606 30025G35KT 3500 -TSRA SHRA
FEW010CB SCT020 TEMPO 2606/2609 4000 -RA BR

VMMC 25/01/2020 UTC

TAF VMMC 252300Z 2600/2706 34016KT 7000 FEW010 SCT020 BKN035
TEMPO 2600/2606 2500 RA BR
TEMPO 2600/2614 33020G30KT

ZGSZ 25/01/2020 UTC

TAF ZGSZ 252111Z 2600/2624 02006MPS 6000 BKN030 TX18/2606Z
TN13/2622Z TEMPO 2600/2606 2500 SHRA SCT015 FEW020CB BKN030

RCTP 25/01/2020 UTC

TAF COR RCTP 252315Z 2600/2706 03015KT 9000 SCT003 BKN006 BKN020
TEMPO 2600/2602 2200 TSRA SCT002 BKN004 FEW010CB BKN015
TEMPO 2602/2605 2500 SHRA FEW003 BKN004 FEW010CB BKN015
TEMPO 2606/2610 35010KT 5000 RA SCT005 BKN012 BKN030
BECMG 2610/2612 SCT005 BKN011 BKN030
TEMPO 2618/2624 36010KT FEW010 BKN025 BKN050
BECMG 2700/2702 FEW012 BKN032

RCKH 25/01/2020 UTC

TAF RCKH 252300Z 2600/2706 35005KT 6000 FEW012 BKN032
TEMPO 2600/2604 04005KT 1600 SHRA SCT005 BKN010 FEW015CB
BKN030
TEMPO 2604/2610 33013KT 4000 RA SCT008 BKN016 BKN040
BECMG 2610/2612 01010KT
TEMPO 2614/2620 04005KT 5000 BR

ZGGG 25/01/2020 UTC

TAF ZGGG 252109Z 2600/2624 36005MPS 8000 BKN040 TX15/2607Z
TN08/2622Z TEMPO 2600/2604 SHRA SCT011 FEW030CB BKN036

ZBAA 25/01/2020 UTC

TAF ZBAA 252120Z 2600/2624 36003MPS 3500 BR NSC TX05/2606Z
TNM06/2621Z

ZSSS 25/01/2020 UTC

TAF ZSSS 252107Z 2600/2624 03006MPS 6000 -RA BKN008 OVC040
TX09/2606Z TN06/2621Z BECMG 2616/2618 BKN015

ZBTJ 26/01/2020 UTC

TAF COR ZBTJ 260030Z 2600/2624 11003MPS 0100 FZFG BKN002 TX04/2607Z
TNM05/2622Z BECMG 2602/2603 0800 BECMG 2606/2607 2000 BR NSC

ZBYN 25/01/2020 UTC

TAF AMD ZBYN 252239Z 2600/2624 09003MPS 3000 HZ NSC TX03/2607Z
TNM07/2621Z

ZSHC 25/01/2020 UTC

TAF ZSHC 252113Z 2600/2624 34003MPS 3000 -SHRA BR SCT005 BKN007
BKN020 TX08/2606Z TN06/2621Z

ZSOF 26/01/2020 UTC

TAF ZSOF 252105Z 2600/2624 36004MPS 3000 -SN BR BKN005
OVC033
TX02/2606Z TN00/2623Z TEMPO 2604/2610 0700 SN BKN004
OVC033 BECMG
2617/2618 2400 BR

ZWWW 25/01/2020 UTC

TAF ZWWW 252106Z 2600/2624 06003MPS 1000 BR BKN006 TXM05/2609Z
TNM14/2623Z BECMG 2604/2605 2000 NSC

ZYTL 25/01/2020 UTC

TAF ZYTL 252105Z 2600/2624 34004MPS 5000 BR NSC TX04/2606Z
TNM03/2620Z TEMPO 2600/2606 2500

RPLL 25/01/2020 UTC

TAF RPLL 252300Z 2600/2706 07006KT 9999 FEW025 SCT100
TX31/2606Z TN25/2622Z
TEMPO 2600/2606 11008KT SCT023 BKN100
TEMPO 2606/2612 VRB03KT SCT023 BKN090

RPVM 25/01/2020 UTC

TAF RPVM 252300Z 2600/2706 04006KT 9999 FEW020 SCT300
TEMPO 2600/2606 33008KT
TEMPO 2606/2612 05010KT FEW020 SCT100

RPMZ 25/01/2020 UTC

TAF RPMZ 252300Z 2600/2624 16005KT 9999 FEW017 SCT090
TEMPO 2606/2612 VRB03KT FEW016CB BKN090

Australian International

The availability of aerodrome forecasts from overseas locations is dependent on the regular international exchange of data. Some locations may at times be absent. If this problem persists, please advise webav@bom.gov.au

 back to top

YMML 25/01/2020 UTC

TAF YMML 252337Z 2600/2706
25010KT 9999 SCT030
FM260200 20012KT 9999 BKN035
BECMG 2605/2607 18015KT 9999 FEW015 BKN020
FM261000 16008KT 9999 FEW018 BKN025
FM261400 16004KT 9999 SCT025
FM270100 19012KT 9999 SCT035
RMK
T 22 25 23 19 Q 1014 1013 1014 1015

YSSY 25/01/2020 UTC

TAF YSSY 252306Z 2600/2706
05014KT 9999 -SHRA FEW035 SCT060
FM261300 19012KT 9999 -SHRA BKN012
FM270000 19012KT 9999 BKN020
FM270200 14012KT 9999 SCT020
TEMPO 2613/2700 6000 -SHRA BKN005
PROB30 TEMPO 2602/2607 VRB15G25KT 3000 TSRA SCT015 SCT060CB
RMK FM261300 MOD TURB BLW 5000FT TL262200
T 30 31 29 27 Q 1011 1009 1008 1009

YBBN 25/01/2020 UTC

TAF YBBN 252308Z 2600/2706
04011KT 9999 -SHRA SCT020 SCT040
FM260200 04015KT 9999 NSW SCT025
FM260900 05008KT 9999 SCT020
FM262300 07013KT 9999 SCT025
INTER 2600/2602 3000 SHRA BKN012
RMK
T 28 28 28 26 Q 1014 1013 1012 1013

YSCB 25/01/2020 UTC

TAF YSCB 252315Z 2600/2700
29013KT 8000 FU NSC
FM260800 34010KT 8000 FU NSC
FM261100 11010KT 6000 FU SCT030
FM261400 13005KT 6000 FU SCT020
FM261900 10005KT 6000 FU BKN010
FM262200 36005KT 8000 FU NSC
PROB30 2618/2623 4000 FU
RMK
T 29 33 33 28 Q 1015 1013 1012 1013

YBCS 25/01/2020 UTC

TAF AMD YBCS 252325Z 2600/2700
18007KT 9999 -SHRA SCT025
FM260200 01008KT 9999 -SHRA SCT025
FM261200 VRB03KT 9999 -SHRA SCT010 BKN025
INTER 2602/2700 3000 SHRA BKN010
PROB30 TEMPO 2603/2610 VRB20G35KT 1000 TSRA BKN005 SCT020CB
PROB30 TEMPO 2614/2618 VRB20G35KT 1000 TSRA BKN005 SCT020CB
RMK
T 30 30 29 28 Q 1009 1007 1006 1008

YBAS 25/01/2020 UTC

TAF YBAS 252245Z 2600/2700
13014KT CAVOK
FM261000 12006KT CAVOK
RMK
T 31 35 37 36 Q 1014 1012 1010 1009

YBMA 25/01/2020 UTC

TAF YBMA 252241Z 2600/2612
08007KT 9999 SCT025
TEMPO 2600/2612 VRB20G35KT 0500 TSRA BKN005 SCT020CB
RMK
T 27 28 28 26 Q 1010 1008 1007 1008

YPAD 25/01/2020 UTC

TAF YPAD 252312Z 2600/2706
23007KT 9999 SCT025
FM260400 20014KT CAVOK
FM261000 16010KT CAVOK
FM261500 VRB05KT 9999 FEW020
FM270000 22010KT CAVOK
RMK
T 21 23 24 23 Q 1017 1016 1014 1014

YPDN 25/01/2020 UTC

TAF YPDN 252319Z 2600/2706
27010KT 9999 SCT020
PROB30 TEMPO 2601/2606 VRB20G35KT 1000 TSRA BKN010 SCT020CB
RMK
T 30 31 31 30 Q 1010 1009 1007 1007

YPTN 25/01/2020 UTC

TAF AMD YPTN 252251Z 2600/2700
29010KT 9999 SCT050
FM261700 33005KT 9999 BKN013
FM262200 28010KT 9999 SCT050
PROB30 TEMPO 2604/2609 VRB20G40KT 1000 TSRA BKN010 SCT030CB
RMK
T 29 33 35 33 Q 1010 1008 1006 1006

YPPH 25/01/2020 UTC

TAF AMD YPPH 252303Z 2600/2706
08007KT CAVOK
FM260400 23015KT CAVOK
FM261200 16008KT CAVOK
FM262000 10010KT CAVOK
FM270400 23015KT CAVOK
RMK FM261600 MOD TURB BLW 3000FT TL262300
T 25 32 35 32 Q 1014 1013 1011 1011

YPLM 25/01/2020 UTC

TAF YPLM 252315Z 2600/2700
20012KT CAVOK
FM260200 05010KT CAVOK
FM260800 25014KT CAVOK
RMK
T 31 36 38 37 Q 1008 1008 1006 1006

YCAR 25/01/2020 UTC

TAF YCAR 252106Z 2522/2611
18014KT CAVOK
FM260300 21020KT CAVOK
RMK
T 25 30 32 32 Q 1009 1009 1008 1007

YPCC 25/01/2020 UTC

TAF YPCC 252318Z 2600/2700
12012KT 9999 SCT025
FM261800 12010KT 9999 -SHRA SCT020 BKN040
RMK
T 27 30 30 30 Q 1011 1013 1011 1009

YPPD 25/01/2020 UTC

TAF YPPD 252320Z 2600/2700
20010KT CAVOK
FM260300 31017KT CAVOK
FM261200 26012KT CAVOK
RMK
T 33 40 40 36 Q 1008 1007 1005 1004

YBTL 25/01/2020 UTC

TAF AMD YBTL 252239Z 2522/2700
06010KT 9999 -SHRA SCT010 SCT020
FM261400 08005KT 9999 -SHRA SCT010 SCT020
INTER 2522/2700 2000 SHRA BKN005
TEMPO 2522/2602 9999 BKN005
PROB30 TEMPO 2603/2618 VRB20G30KT 0500 TSRA BKN005 SCT020CB
RMK
T 25 30 31 29 Q 1010 1009 1007 1007

YMHB 25/01/2020 UTC

TAF YMHB 252247Z 2600/2700
14014KT 9999 BKN040
FM260300 28015G25KT 9999 -SHRA SCT045
FM260800 32012KT 9999 FEW040
FM262100 36005KT 9999 -SHRA SCT030
RMK FM260000 MOD TURB BLW 5000FT TL260700
T 20 22 21 18 Q 1007 1006 1008 1010

YPXM 25/01/2020 UTC

TAF YPXM 252327Z 2600/2700
13010KT 9999 -SHRA BKN012 BKN020
FM260300 11010KT 9999 -SHRA SCT012 BKN020
TEMPO 2600/2603 9999 BKN005
TEMPO 2603/2700 9999 BKN010
RMK
T 26 28 28 28 Q 1012 1013 1011 1009

New Zealand

The availability of aerodrome forecasts from overseas locations is dependent on the regular international exchange of data. Some locations may at times be absent. If this problem persists, please advise webav@bom.gov.au

 back to top

NZAA 25/01/2020 UTC

TAF NZAA 252301Z 2600/2700 23015KT 9999 FEW025
FM260800 20005KT 9999 BKN020
TEMPO 2612/2620 BKN012
BECMG 2622/2700 23015KT

NZWN 25/01/2020 UTC

TAF NZWN 252301Z 2600/2700 36018KT 9999 FEW018
BECMG 2610/2612 BKN014
BECMG 2622/2700 36020G30KT SCT020

NZCH 25/01/2020 UTC

TAF NZCH 252300Z 2600/2700 12005KT 9999 FEW040
BECMG 2600/2602 08015KT
TEMPO 2606/2611 BKN008
BECMG 2608/2610 35005KT
BECMG 2621/2623 29010KT

YLHI 25/01/2020 UTC

TAF YLHI 252346Z 2600/2700
04010KT 9999 SCT025
RMK
T 27 27 26 24 Q 1018 1017 1016 1016

YSNF 25/01/2020 UTC

TAF YSNF 252348Z 2600/2700
09016KT 9999 SCT025 SCT035
FM260400 11014KT 9999 -SHRA BKN020
FM260900 10007KT 9999 SCT025 SCT035
FM261800 12012KT 9999 -SHRA FEW015 BKN025
TEMPO 2618/2700 5000 SHRA BKN015
RMK
T 26 25 23 21 Q 1018 1017 1017 1018

Indonesia, Malaysia, Myanmar, Singapore, Thailand, Vietnam

The availability of aerodrome forecasts from overseas locations is dependent on the regular international exchange of data. Some locations may at times be absent. If this problem persists, please advise webav@bom.gov.au

 back to top

WADA

TAF not available.

WAAA 25/01/2020 UTC

TAF WAAA 252300Z 2600/2706 10004KT 9999 SCT018
BECMG 2603/2605 29010KT
TEMPO 2608/2610 6000 -TSRA FEW017CB
BECMG 2611/2613 10005KT 8000

WIII 25/01/2020 UTC

TAF WIII 252300Z 2600/2706 35012KT 8000 SCT020 TEMPO 2604/2608 5000
-TSRA FEW018CB BKN020 BECMG 2615/2617 23005KT 3000 BR

WIHH 25/01/2020 UTC

TAF WIHH 252300Z 2600/2700 29008KT 6000 SCT018
TEMPO 2606/2609 3000 -RA FEW016CB BKN017
BECMG 2611/2613 17005KT 5000 HZ

WIMM 25/01/2020 UTC

TAF WIMM 252300Z 2600/2700 VRB07KT 8000 SCT018
BECMG 2614/2616 25004KT 4000 HZ

WIPP 25/01/2020 UTC

TAF WIPP 252300Z 2600/2624 34008KT 9999 SCT010
TEMPO 2600/2602 1500 RA FEW010CB BKN010
PROB30 TEMPO 2608/2612 3000 RA FEW010CB BKN010
TEMPO 2620/2624 1500 BR

WIKD

TAF not available.

WARR 25/01/2020 UTC

TAF WARR 252300Z 2600/2700 25005KT 4000 HZ SCT020
BECMG 2601/2603 09010KT 9999 NSW FEW020CB
TEMPO 2609/2612 4000 TSRA SCT018CB
BECMG 2612/2614 27005KT 4000 HZ SCT020

WADD 25/01/2020 UTC

TAF WADD 252300Z 2600/2700 VRB05KT 9999 SCT016
TEMPO 2606/2610 FEW016CB

WRRA

TAF not available.

WALL 25/01/2020 UTC

TAF COR WALL 252300Z 2600/2706 32003KT 9999 SCT020 TEMPO 2600/2602 9000 -RA FEW020CB SCT020
BECMG 2603/2605 04007KT BECMG 2613/2615 32003KT

WSSS 25/01/2020 UTC

TAF WSSS 252300Z 2600/2706 03010KT 9999 FEW020

WSAP 25/01/2020 UTC

TAF WSAP 252300Z 2600/2706 03010KT 9999 FEW020

WMKK 25/01/2020 UTC

TAF WMKK 252300Z 2600/2706 VRB03KT 9999 FEW030
TEMPO 2610/2614 4000 TSRA FEW010 FEW017CB SCT020
PROB30 TEMPO 2701/2705 3000 TSRA FEW008 FEW015CB SCT018

WMSA 25/01/2020 UTC

TAF WMSA 252300Z 2600/2700 VRB03KT 9999 FEW026
TEMPO 2610/2614 4000 TSRA FEW010 FEW017CB SCT020

WMKP 25/01/2020 UTC

TAF WMKP 252300Z 2600/2700 04006KT 9000 FEW020
BECMG 2604/2606 24008KT
BECMG 2612/2614 VRB03KT FEW025
BECMG 2618/2620 03004KT

WMKJ 25/01/2020 UTC

TAF WMKJ 252300Z 2600/2700 VRB02KT 9999 FEW023

WMKD 25/01/2020 UTC

TAF WMKD 252300Z 2600/2700 35005KT 9999 FEW020

WMKB 25/01/2020 UTC

TAF WMKB 252300Z 2600/2700 04005KT 9999 FEW020
BECMG 2604/2606 30010KT
BECMG 2612/2614 03003KT 8000 FEW024

VTBD 25/01/2020 UTC

TAF VTBD 252300Z 2600/2706 19008KT 9999 FEW020
BECMG 2622/2624 25005KT

VTBS 25/01/2020 UTC

TAF VTBS 252300Z 2600/2706 20010KT 9999 FEW020
BECMG 2622/2624 14005KT

VTBU 25/01/2020 UTC

TAF VTBU 252300Z 2600/2624 18009KT 9000 FEW020

VTCC 25/01/2020 UTC

TAF VTCC 252300Z 2600/2706 00000KT 9000 NSC

VTSP 25/01/2020 UTC

TAF VTSP 252300Z 2600/2706 10008KT 9999 FEW020
BECMG 2606/2608 30008KT
BECMG 2616/2618 00000KT

VTSS 25/01/2020 UTC

TAF VTSS 252300Z 2600/2624 30003KT 9999 FEW020
BECMG 2604/2606 04010KT
BECMG 2613/2615 30003KT

VVTS 25/01/2020 UTC

TAF VVTS 252300Z 2600/2706 13008KT 9999 SCT017

VDPP 25/01/2020 UTC

TAF VDPP 252300Z 2600/2618 16010KT 9999 SCT017

VVNB 25/01/2020 UTC

TAF VVNB 252300Z 2600/2624 02008KT 9999 SCT020

VYYY 25/01/2020 UTC

TAF VYYY 252300Z 2600/2624 29005KT 8000 NSC
BECMG 2600/2602 34002KT 4000 BR
TEMPO 2606/2612 27005KT 7000 FEW025 SCT110

South America

The availability of aerodrome forecasts from overseas locations is dependent on the regular international exchange of data. Some locations may at times be absent. If this problem persists, please advise webav@bom.gov.au

 back to top

SAEZ 25/01/2020 UTC

TAF SAEZ 252300Z 2600/2624 05015KT CAVOK TX35/2618Z TN20/2609Z
BECMG 2605/2607 12010KT
BECMG 2612/2614 35005KT
BECMG 2621/2623 18020KT

SAVC 26/01/2020 UTC

TAF SAVC 252300Z 2600/2624 25020G30KT CAVOK
TX27/2600Z TN13/2610Z BECMG 2604/2606 18010KT
BECMG 2615/2617 05015KT

SCIE 26/01/2020 UTC

TAF SCIE 252220Z 2600/2624 22012KT CAVOK TX23/2619Z TN13/2611Z BECMG
2604/2606 20006KT TEMPO 2608/2612 16004KT BECMG 2613/2615
21010KT BECMG 2617/2619 24015KT

SACO 25/01/2020 UTC

TAF SACO 252300Z 2600/2624 07005KT 9999 FEW040 TX37/2618Z
TN21/2610Z
BECMG 2603/2605 32005KT CAVOK
BECMG 2614/2617 16005KT 9999 SCT030 FEW040TCU
BECMG 2619/2622 18025KTY 7000 TSRA BKN030 FEW040CB

SCIP 26/01/2020 UTC

TAF SCIP 252213Z 2600/2700 10012KT FEW020 SCT050
TX27/2620Z TN20/2610Z
TEMPO 2503/2609 06005KT 6000 -SHRA SCT015 BKN030
BECMG 2610/2612 09004KT
TEMPO 2617/2622 09012KT 6000 -SHRA SCT015 BKN030

SAZM 25/01/2020 UTC

TAF SAZM 252300Z 2600/2624 16010KT CAVOK TX26/2619Z TN11/2610Z
BECMG 2601/2602 29005KT
BECMG 2610/2612 34010KT
BECMG 2620/2621 20015G25KT 9999 BKN030

SAME 25/01/2020 UTC

TAF SAME 252300Z 2600/2624 14005KT 9999 FEW040 TX35/2621Z
TN24/2610Z
BECMG 2602/2604 20005KT CAVOK
BECMG 2614/2616 14010KT 9999 FEW040

SUMU 25/01/2020 UTC

TAF SUMU 252330Z 2600/2624 07010KT CAVOK TX32/2618Z TN19/2609Z
BECMG 2616/1318 13015KT

SAZN 26/01/2020 UTC

TAF SAZN 252300Z 2600/2624 23010KT CAVOK TX35/2619Z TN20/2610Z

SCTE 25/01/2020 UTC

TAF SCTE 252212Z 2600/2624 25006KT 9999 SCT015 BKN020
TN12/2611Z TX20/2619Z
TEMPO 2604/2609 0800 BCFG OVC005
BECMG 2606/2608 VRB03KT
BECMG 2611/2613 BKN025
BECMG 2615/2617 17006KT

SCCI 25/01/2020 UTC

TAF SCCI 252253Z 2600/2700 27025G38KT 9999 SCT035
TN07/2610Z TX15/2618Z
TEMPO 2600/2606 9000 -SHRA BKN025
BECMG 2608/2610 9000 -SHRA SCT020 BKN035
BECMG 2619/2621 26025G35KT 9999 NSW SCT040

SAWG 26/01/2020 UTC

TAF SAWG 252300Z 2600/2624 25030G45KT CAVOK
TX15/2619Z TN08/2610Z BECMG 2613/2615 25025G38KT 9999 BKN030
BECMG 2621/2623 25020KT

SAAR 25/01/2020 UTC

TAF SAAR 252300Z 2600/2624 25005KT CAVOK TX36/2619Z TN22/2610Z
BECMG 2602/2603 VRB05KT

SAZS 25/01/2020 UTC

TAF SAZS 252300Z 2600/2624 29020KT CAVOK TX23/2619Z TN10/2610Z
BECMG 2601/2603 29010KT
BECMG 2613/2614 29020KT

SCEL 26/01/2020 UTC

TAF SCEL 252220Z 2600/2624 21015KT CAVOK TX32/2619Z TN16/2611Z BECMG
2601/2603 16006KT TEMPO 2608/2612 VRB02KT 8000 NSC BECMG
2614/2616 19010KT BECMG 2618/2620 22015KT

SAWH 26/01/2020 UTC

TAF SAWH 252300Z 2600/2624 29015KT 9999 -SHRA BKN030 OVC060
TX09/2619Z TN04/2604Z BECMG 2603/2605 23020G30KT SHRA BKN025 OVC050
PROB30 TEMPO 2604/2608 5000 RA
BECMG 2615/2617 23015KT

Guam, Japan, Korea

The availability of aerodrome forecasts from overseas locations is dependent on the regular international exchange of data. Some locations may at times be absent. If this problem persists, please advise webav@bom.gov.au

 back to top

PGUA 26/01/2020 UTC

TAF PGUA 260200Z 2602/2708 08015G20KT 9999 BKN015 BKN030
QNH2990INS
TEMPO 2602/2606 08015G25KT 9000 -SHRA SCT015
BECMG 2706/2707 08012KT 9999 SCT010 QNH2982INS
TX27/2700Z
TN23/2618Z

PGUM 26/01/2020 UTC

TAF PGUM 260115Z 2601/2706 07015G25KT P6SM VCSH SCT022 SCT060
TEMPO 2601/2605 5SM -SHRA SCT015 BKN025
FM260900 07011KT P6SM VCSH SCT020 SCT050
FM262300 07015G25KT P6SM VCSH SCT022 SCT060

PGSN 25/01/2020 UTC

TAF PGSN 252339Z 2600/2624 08018G26KT P6SM VCSH SCT022 SCT060
TEMPO 2600/2604 08020G28KT -SHRA SCT018 BKN028
FM260900 07015KT P6SM VCSH SCT020 SCT050
FM262300 07015G25KT P6SM VCSH SCT022 SCT060

PTRO 26/01/2020 UTC

TAF PTRO 260108Z 2601/2624 06011G20KT P6SM VCSH SCT016
TEMPO 2601/2605 BKN016
FM260900 06010KT P6SM VCSH SCT016 SCT040

RJOO

25/01/2020 UTC

TAF RJOO 252307Z 2600/2706 07004KT 9999 FEW030 BECMG 2600/2602
36008KT BECMG 2618/2621 07015KT TEMPO 2621/2706 07018G29KT

RJOB 25/01/2020 UTC

TAF RJOB 252306Z 2600/2706 04010KT 9999 FEW035 TEMPO 2621/2700 4000
-RA BR TEMPO 2700/2706 07022G33KT 4000 RA BR FEW003 BKN008
BKN015

RJGG 25/01/2020 UTC

TAF RJGG 252305Z 2600/2706 35006KT 9999 FEW020 BKN050 BECMG
2605/2607 12008KT BECMG 2615/2618 04006KT BECMG 2621/2700
11016KT

RJCC 25/01/2020 UTC

TAF RJCC 252306Z 2600/2706 34006KT 9999 FEW010 SCT030 TEMPO
2600/2603 3000 -SHSN BECMG 2607/2609 21005KT BECMG
2621/2700 34014KT

RJSS 25/01/2020 UTC

TAF RJSS 252305Z 2600/2706 34004KT 9999 FEW020 BECMG 2601/2603
12005KT BECMG 2607/2609 30008KT BECMG 2700/2703 12005KT

RJFK 26/01/2020 UTC

TAF AMD RJFK 260021Z 2600/2706 10008KT 8000 -SHRA FEW005 SCT015
BKN025 TEMPO 2612/2621 09015G30KT 3000 SHRA BR FEW003
BKN008 BKN010 BECMG 2621/2700 09018KT TEMPO 2621/2706
09018G30KT

RJAA 25/01/2020 UTC

TAF RJAA 252305Z 2600/2706 04008KT 9999 FEW015 BKN030

RJBB 25/01/2020 UTC

TAF RJBB 252305Z 2600/2706 04008KT 9999 FEW030 SCT050 BECMG
2618/2621 06020KT TEMPO 2700/2706 06030G41KT 4000 RA BR

RJTT 25/01/2020 UTC

TAF RJTT 252305Z 2600/2706 02010KT 9999 FEW015 BKN030 TEMPO
2600/2602 FEW005 BKN008

RJFF 25/01/2020 UTC

TAF RJFF 252305Z 2600/2706 04006KT 9999 FEW040 BECMG 2610/2612
12006KT BECMG 2618/2621 04011KT TEMPO 2618/2700 3000 SHRA
BR TEMPO 2700/2706 05017G27KT 4000 SHRA BR

RJFT 25/01/2020 UTC

TAF RJFT 252306Z 2600/2706 05012KT 9999 FEW020 BKN045 BECMG
2606/2608 06017G27KT

RJFU 25/01/2020 UTC

TAF RJFU 252306Z 2600/2706 06010KT 9999 FEW025 BKN040 BECMG
2700/2703 35013KT

ROAH 25/01/2020 UTC

TAF ROAH 252307Z 2600/2706 12008KT 9999 FEW010 BKN020 BECMG
2604/2606 19014KT TEMPO 2604/2607 4000 TSRA FEW008 BKN015
FEW020CB TEMPO 2618/2621 3000 TSRA SCT008 BKN015 SCT020CB
BECMG 2621/2700 30020KT

RKSS 25/01/2020 UTC

TAF RKSS 252300Z 2600/2706 36005KT 7000 NSC TX11/2605Z TN04/2622Z
TX07/2703Z BECMG 2603/2604 06009KT BECMG 2704/2705 SCT030
BKN100

RKSI 25/01/2020 UTC

TAF RKSI 252300Z 2600/2706 05009KT 8000 NSC
TX10/2607Z TN04/2621Z TX06/2706Z
BECMG 2610/2611 06015G25KT FEW030 SCT120
BECMG 2615/2616 06012KT
BECMG 2623/2624 05015G25KT SCT030 BKN100

RKSM 25/01/2020 UTC

TAF RKSM 252300Z 2600/2706 24006KT 9999 BKN200 TX11/2606Z
TN04/2621Z

RKPK 25/01/2020 UTC

TAF RKPK 252300Z 2600/2706 03006KT CAVOK
TX11/2605Z TN07/2622Z
BECMG 2611/2612 03012KT 9999 BKN030 BKN100
BECMG 2614/2615 4800 -RA BR BKN015 OVC030

RKPC 25/01/2020 UTC

TAF RKPC 252300Z 2600/2706 07015G25KT 9999 FEW010 BKN030 OVC080
TX13/2605Z TN10/2620Z TX12/2704Z BECMG 2609/2610 07020G35KT
6000 BECMG 2612/2613 -RA BECMG 2615/2616 4200 RA BECMG
2702/2703 03020G35KT 6000

Indonesia, Pakistan, Singapore, India, Sri Lanka, United Arab Emirates

The availability of aerodrome forecasts from overseas locations is dependent on the regular international exchange of data. Some locations may at times be absent. If this problem persists, please advise webav@bom.gov.au

 back to top

WIII 25/01/2020 UTC

TAF WIII 252300Z 2600/2706 35012KT 8000 SCT020 TEMPO 2604/2608 5000
-TSRA FEW018CB BKN020 BECMG 2615/2617 23005KT 3000 BR

WSSS 25/01/2020 UTC

TAF WSSS 252300Z 2600/2706 03010KT 9999 FEW020

VCBI 25/01/2020 UTC

TAF VCBI 252300Z 2600/2706 04008KT 9999 FEW018 TX34/2607Z
TN24/2700Z
TEMPO 2600/2602 8000

VECC 25/01/2020 UTC

TAF VECC 252300Z 2600/2706 00000KT 1400 BR NSC
BECMG 2603/2605 32005KT 2600 HZ
BECMG 2606/2608 4000 HZ
BECMG 2614/2616 00000KT 2800 HZ
BECMG 2700/2702 1400 BR
BECMG 2703/2705 29005KT 2500 HZ

VOMM 25/01/2020 UTC

TAF VOMM 252300Z 2600/2706 VRB02KT 3000 BR FEW020
TEMPO 2600/2603 1500 BR BECMG 2603/2604 07010KT 4000 HZ
BECMG 2606/2607 6000 BECMG 2618/2619 VRB02KT 5000 BR
BECMG 2621/2622 3000 BR BECMG 2703/2704 07010KT 6000

VOTV 25/01/2020 UTC

TAF VOTV 252300Z 2600/2706 VRB02KT 2500 BR FEW015
BECMG 2604/2605 15005KT 5000 HZ
BECMG 2606/2607 33010KT 6000 FEW015
BECMG 2612/2613 27005KT 5000 HZ FEW015
BECMG 2614/2615 32005KT 3000 HZ FEW015
BECMG 2623/2700 VRB02KT 2500 BR FEW015
BECMG 2704/2706 17005KT 5000 HZ FEW015

VABB 25/01/2020 UTC

TAF VABB 252300Z 2600/2706 07005KT 2200 HZ SCT100
BECMG 2603/2605 2500 FU
BECMG 2606/2608 3000 FU
BECMG 2608/2610 30008KT 4000 FU
BECMG 2613/2615 3000 FU
BECMG 2618/2620 33005KT 2500 FU HZ
BECMG 2621/2623 00000KT 2200 HZ
BECMG 2700/2702 07005KT
BECMG 2703/2705 2500 FU

VAAH 25/01/2020 UTC

TAF VAAH 252300Z 2600/2706 01003KT 3500 HZ NSC
BECMG 2601/2603 1500 HZ SCT080
BECMG 2604/2606 05005KT 4000 FU
BECMG 2607/2609 5000 FU
BECMG 2612/2614 36005KT 3500 FUHZ
BECMG 2701/2703 32003KT 2000 HZ
BECMG 2704/2706 29006KT 4000 HZ FEW025 SCT080

VILK 26/01/2020 UTC

TAF VILK 252300Z 2600/2706 00000KT 0600 FG NSC
BECMG 2601/2603 0350 FG VV///
BECMG 2604/2606 VRB02KT 1500 BR NSC
BECMG 2607/2609 29006KT 3000 BR HZ FEW100
BECMG 2618/2620 VRB02KT 1500 BR NSC
BECMG 2700/2702 0800 MIFG FG VV///

VANP 25/01/2020 UTC

TAF VANP 252300Z 2600/2706 03003KT 2000 HZ FEW020 SCT100
BECMG 2604/2606 05005KT 4000 HZ FEW100
BECMG 2612/2614 02003KT 3000 HZ
BECMG 2618/2620 03003KT 2500 HZ
BECMG 2700/2702 03005KT 2000 HZ FEW020 SCT100
BECMG 2704/2706 13005KT 3000 HZ FEW020 SCT100

VRMM 25/01/2020 UTC

TAF VRMM 252300Z 2600/2706 07014KT 9999 FEW018TCU TEMPO 2600/2606
FEW018CB

VOHS 25/01/2020 UTC

TAF VOHS 252300Z 2600/2706 15006KT 5000 BR FEW015 TEMPO 2600/2603
VRB03KT 3000 BR NSC BECMG 2603/2605 11006KT 5000 HZ FEW015 TEMPO
2606/2614 VRB04KT 6000 NSC TEMPO 2616/2703 14005KT 3000 BR FEW010
BECMG 2704/2706 17006KT 5000 HZ SCT015 SCT100

OPKC 25/01/2020 UTC

TAF OPKC 252130Z 2600/2706 27008G18KT 6000 NSC TEMPO 2601/2605
34008KT 2500 HZ NSC BECMG 2616/2618 34010KT 2500 HZ NSC
TEMPO 2701/2706 27010KT 3000 HZ NSC

OBBI 25/01/2020 UTC

TAF OBBI 252300Z 2600/2706 31020G30KT 7000 FEW050 PROB30 TEMPO
2600/2603 4000 DU NSC BECMG 2603/2606 BKN015

OMAA 26/01/2020 UTC

TAF AMD OMAA 260134Z 2601/2706 29016KT 8000 NSC
TEMPO 2602/2615 29022KT 2500 BLDU BKN040
PROB30 TEMPO 2615/2621 VRB18G30KT 4000 SHRA FEW040TCU

OMDB 25/01/2020 UTC

TAF OMDB 252300Z 2600/2706 26006KT 9999 FEW030
BECMG 2604/2606 28016KT
PROB30 TEMPO 2605/2616 28022G32KT 4000 SHRA SCT035TCU
BECMG 2621/2623 29006KT

OOMS 25/01/2020 UTC

TAF OOMS 252300Z 2600/2706 24005KT 8000 SCT025 PROB30 TEMPO
2600/2606 RA BKN025 BECMG 2606/2608 35012KT BECMG 2615/2617
26010KT

OMSJ 25/01/2020 UTC

TAF OMSJ 252300Z 2600/2706 22007KT 9999 FEW030
BECMG 2604/2606 28017KT
PROB30 TEMPO 2605/2616 29022G32KT 4000 SHRA BLDU SCT035TCU
BECMG 2618/2620 29007KT

Malawi, Mauritius, South Africa, Zambia, Zimbabwe

The availability of aerodrome forecasts from overseas locations is dependent on the regular international exchange of data. Some locations may at times be absent. If this problem persists, please advise webav@bom.gov.au

 back to top

FIMP 25/01/2020 UTC

TAF FIMP 252335Z 2600/2706 20020G35KT 9999 SCT016 BKN050 TEMPO
2600/2606 5000 -SHRA FEW010 SCT014 BECMG 2606/2608 16020G35KT

FMEE 25/01/2020 UTC

TAF FMEE 252300Z 2600/2706 18005KT 9999 SCT025 SCT042 BECMG 2603/2604
11008KT TEMPO 2607/2614 27006KT BECMG 2615/2617 19005KT

FLKK 25/01/2020 UTC

TAF FLKK 252200Z 2600/2706 VRB03KT CAVOK
BECMG 2604/2606 09005KT 9000 HZ NSC
BECMG 2607/2609 12010KT SCT035
BECMG 2612/2614 BKN045TCU

FWKI 25/01/2020 UTC

TAF FWKI 251600Z 2518/2624 10010KT 9999 FEW035CB BECMG 2518/2520
FEW040CB BECMG 2606/2608 10005KT 9999 FEW020 BECMG 2609/2611
12005KT 9999 SCT025 BECMG 2614/2616 04005KT FEW030CB

FAOR 25/01/2020 UTC

TAF FAOR 252200Z 2600/2706 32010KT CAVOK
TX26/2613Z TN15/2604Z
BECMG 2609/2611 SCT030
PROB30 TEMPO 2615/2621 -TSRA FEW030CB
BECMG 2621/2623 VRB03KT CAVOK

FVHA

TAF not available.

FAWK 26/01/2020 UTC

TAF FAWK 260000Z 2601/2612 NIL

FABL 25/01/2020 UTC

TAF FABL 252200Z 2600/2624 VRB03KT 9999 SCT015
TX30/2612Z TN15/2604Z
TEMPO 2602/2606 0800 FG BKN008
BECMG 2606/2608 34010KT 9999 SCT035

FALE 25/01/2020 UTC

TAF FALE 252200Z 2600/2706 02006KT CAVOK
TX33/2612Z TN19/2704Z
BECMG 2608/2610 04015KT
FM261400 20018G30KT 9999 SCT025
PROB30 TEMPO 2618/2704 5000 SHRA BKN015

YPCC 25/01/2020 UTC

TAF YPCC 252318Z 2600/2700
12012KT 9999 SCT025
FM261800 12010KT 9999 -SHRA SCT020 BKN040
RMK
T 27 30 30 30 Q 1011 1013 1011 1009

United States (includes Hawaii) and Mexican emergency/alternates

The availability of aerodrome forecasts from overseas locations is dependent on the regular international exchange of data. Some locations may at times be absent. If this problem persists, please advise webav@bom.gov.au

 back to top

PHNL 25/01/2020 UTC

TAF PHNL 252333Z 2600/2706 06011G16KT P6SM FEW025 SCT050
FM260500 05007KT P6SM FEW025 SCT040
FM262000 09011G16KT P6SM FEW030 SCT050
FM270500 05007KT P6SM FEW025 SCT040

PHLI 25/01/2020 UTC

TAF PHLI 252333Z 2600/2624 07012KT P6SM SCT025 BKN040
FM260400 06010KT P6SM VCSH SCT020 BKN040
FM262000 05011KT P6SM SCT025 BKN040

PHOG 25/01/2020 UTC

TAF PHOG 252333Z 2600/2624 04015G25KT P6SM FEW045 SCT060
FM260500 07007KT P6SM FEW045
FM262000 04015G25KT P6SM FEW045 SCT060

PHTO 25/01/2020 UTC

TAF PHTO 252333Z 2600/2624 06010KT P6SM SCT030 BKN050
FM260500 22005KT P6SM VCSH SCT020 BKN040
FM262000 06010KT P6SM SCT030 BKN050

PKMJ 26/01/2020 UTC

TAF PKMJ 260222Z 2602/2624 05015G25KT P6SM VCSH SCT016 SCT040
BKN120

KLAX 25/01/2020 UTC

TAF KLAX 252343Z 2600/2706 26010KT 4SM HZ SCT005 SCT200
FM260200 27008KT 2SM BR VCFG BKN005
FM260400 VRB03KT 1/2SM FG VV002
FM261200 11005KT 2SM BR VCFG OVC004
FM261600 12005KT 4SM BR OVC008
FM261900 27010KT P6SM BKN015
FM270300 31008KT P6SM SCT015

KONT 25/01/2020 UTC

TAF KONT 252325Z 2600/2706 VRB04KT P6SM SCT250
FM262100 25009KT P6SM SCT250
FM270300 VRB04KT P6SM SCT250

KPMD 25/01/2020 UTC

TAF AMD KPMD 252345Z 2600/2624 VRB03KT P6SM SCT200
FM261000 21006KT P6SM SCT150
FM261600 28010KT P6SM SCT150
FM262100 28020G30KT P6SM BKN150

KSAN 26/01/2020 UTC

TAF KSAN 260225Z 2602/2706 VRB04KT P6SM BKN009
FM260400 VRB04KT 4SM BR BKN008
FM260800 VRB04KT 2SM BR VCFG OVC005
FM261700 VRB04KT 5SM HZ BKN010
FM261900 VRB04KT 6SM HZ SCT010
FM262100 24007KT 6SM HZ SCT250
FM270300 VRB04KT 6SM HZ BKN010

KLAS 25/01/2020 UTC

TAF KLAS 252322Z 2600/2706 09005KT P6SM BKN250
FM260300 22006KT P6SM BKN250
FM261800 15007KT P6SM SCT120
FM262200 20010G16KT P6SM SCT120
FM270400 34012G20KT P6SM BKN080

KOAK 25/01/2020 UTC

TAF KOAK 252332Z 2600/2706 27005KT 6SM HZ FEW009 SCT020 BKN035
FM260100 20007KT 6SM BR VCSH SCT009 BKN015 OVC030
FM260900 18008KT 5SM -SHRA BR BKN008 BKN015 OVC025
FM261600 23009KT 6SM BR VCSH FEW010 BKN020 BKN030
FM262000 27008KT P6SM BKN040
FM270300 25004KT P6SM SCT040

KSFO 25/01/2020 UTC

TAF KSFO 252332Z 2600/2706 34005KT P6SM SCT015 BKN050
FM260200 20007KT 6SM BR VCSH SCT008 BKN020 BKN030
FM260900 20008KT 5SM -SHRA BR BKN007 BKN015 OVC025
FM261600 23006KT 6SM BR VCSH FEW008 SCT020 BKN030
FM262000 28010KT P6SM BKN040
FM270300 28008KT P6SM SCT040

KSMF 25/01/2020 UTC

TAF KSMF 252336Z 2600/2624 VRB04KT 6SM HZ OVC050
FM260400 16008KT 6SM -RA BR OVC015
TEMPO 2604/2608 2SM RA BR OVC007
FM261200 16007KT 2SM -RA BR OVC004
FM261900 21005KT P6SM BKN030
FM262200 28005KT P6SM SCT035 BKN250

KSCK 25/01/2020 UTC

TAF KSCK 252336Z 2600/2624 VRB03KT 3SM BR OVC010
FM260500 13005KT 5SM -RA BR OVC030
FM261000 15005KT 2SM -RA BR OVC030
FM261400 14003KT 1SM -RA BR OVC004
FM261700 VRB03KT 3SM BR OVC020
FM262000 28007KT P6SM SCT025 BKN250

KFAT 26/01/2020 UTC

TAF AMD KFAT 260003Z 2600/2624 VRB04KT 6SM HZ BKN200
FM260800 12005KT 4SM BR OVC100
TEMPO 2612/2616 2SM -DZ BR OVC030
FM261600 12005KT 4SM BR OVC030
FM262000 30007KT 4SM HZ BKN050

KJFK 26/01/2020 UTC

TAF KJFK 260108Z 2601/2706 25015KT P6SM SCT002 BKN010 BKN025
FM260300 27010KT P6SM BKN050
FM261200 27010KT P6SM SCT050 BKN100
FM261800 28010G17KT P6SM SCT100 SCT250
FM262300 27013KT P6SM SCT120 SCT250

KPHL 26/01/2020 UTC

TAF KPHL 260031Z 2601/2706 28008KT P6SM SCT040 BKN080
FM261600 27010G18KT P6SM BKN050
FM262200 26009KT P6SM BKN040

KPIT 26/01/2020 UTC

TAF KPIT 260209Z 2602/2706 23012KT 3SM -SN BKN008
FM260800 23012G18KT P6SM -SN OVC015

KDEN 26/01/2020 UTC

TAF AMD KDEN 260103Z 2601/2706 13007KT P6SM FEW120 SCT220
FM260500 21009KT P6SM SCT150 BKN220
FM261900 35007KT P6SM FEW110 SCT200

KMCI 25/01/2020 UTC

TAF KMCI 252322Z 2600/2624 VRB04KT P6SM OVC100
TEMPO 2600/2603 6SM BR BKN008
FM261000 18003KT 5SM BR SCT007 BKN100
FM261500 25005KT P6SM BKN100

KDFW 25/01/2020 UTC

TAF KDFW 252340Z 2600/2706 17014KT P6SM BKN045
FM260400 16014KT P6SM VCSH BKN030
FM260600 20009KT P6SM VCSH OVC020
FM260900 21008KT P6SM OVC018
FM261200 30007KT P6SM SCT008 OVC015
TEMPO 2613/2616 4SM -DZ BR BKN008
FM261800 34010KT P6SM SCT300
FM262300 33004KT P6SM FEW300

KAUS 25/01/2020 UTC

TAF KAUS 252340Z 2600/2706 17011KT P6SM OVC029
FM260400 VRB04KT 5SM -DZ BR OVC007
FM260800 VRB03KT 2SM -DZ BR OVC004
FM261000 34002KT 1/2SM FG BKN002
FM261500 33009KT P6SM SCT250
FM270000 01005KT P6SM SKC

KELP 25/01/2020 UTC

TAF KELP 252325Z 2600/2624 33006KT P6SM SCT250
FM261700 27010KT P6SM SCT250

KIAH 25/01/2020 UTC

TAF KIAH 252333Z 2600/2706 14008KT P6SM OVC050
FM260500 12008KT P6SM -SHRA SCT010 OVC020
FM260900 VRB04KT 4SM -SHRA BR SCT003 OVC006
FM261600 29006KT P6SM VCSH SCT007 OVC015
FM262000 30008KT P6SM BKN035

KSAT 26/01/2020 UTC

TAF KSAT 260105Z 2601/2706 11004KT P6SM OVC007
FM260300 14005KT 3SM -DZ BR OVC004
FM260600 VRB03KT 1SM -DZ BR OVC002
FM260800 00000KT 1/4SM FG OVC002
FM261400 32006KT 5SM BR BKN006
FM261600 34008KT P6SM SCT250

KTUS 25/01/2020 UTC

TAF KTUS 252322Z 2600/2624 36010KT P6SM FEW080 BKN250
FM260300 30004KT P6SM SKC
FM260600 15006KT P6SM SKC
FM262100 25006KT P6SM SCT250

MMCU 25/01/2020 UTC

TAF MMCU 251657Z 2518/2618 12012KT P6SM SCT030 BKN080 BKN250
FM260600 09005KT P6SM SCT250
FM261700 30010KT P6SM SCT030 BKN090 BKN250

MMHO 25/01/2020 UTC

TAF MMHO 251615Z 2518/2618 23010KT P6SM SCT080 BKN100 BKN250
FM260600 00000KT P6SM BKN250
FM261700 24010KT P6SM SCT100 BKN250

MMLT 25/01/2020 UTC

TAF MMLT 251642Z 2518/2618 02010KT P6SM SKC
FM260300 00000KT P6SM SKC

MMSD 25/01/2020 UTC

TAF MMSD 251642Z 2518/2618 14012KT P6SM BKN250
FM260300 34010KT P6SM SCT250

Papua New Guinea, Southwest Pacific

The availability of aerodrome forecasts from overseas locations is dependent on the regular international exchange of data. Some locations may at times be absent. If this problem persists, please advise webav@bom.gov.au

 back to top

NWWW 25/01/2020 UTC

TAF NWWW 252300Z 2600/2624 15005KT 9999 SCT050 SCT065 BECMG 2600/2602
19015KT TEMPO 2600/2606 4000 SHRA FEW030TCU BECMG 2608/2610 12005KT

NFFN 25/01/2020 UTC

TAF NFFN 252326Z 2600/2624
31010KT 9999 SCT028 BKN045
TEMPO 2603/2607 5000 TSRA BKN015 FEW017CB
BECMG 2603/2605 11010KT
BECMG 2622/2624 31010KT

NFNA 25/01/2020 UTC

TAF NFNA 252337Z 2600/2624
12009KT 9999 SCT020 SCT050
PROB30 TEMPO 2602/2610 5000 SHRA BKN015
PROB30 TEMPO 2617/2621 5000 SHRA BKN015

NFTF 25/01/2020 UTC

TAF NFTF 252332Z 2600/2624
12010KT 9999 -SHRA SCT008 SCT016 OVC040
TEMPO 2600/2605 5000 SHRA BKN015
TEMPO 2605/2621 3000 +SHRA BKN008 BKN015
TEMPO 2621/2624 5000 SHRA BKN015

NSTU 25/01/2020 UTC

TAF NSTU 252333Z 2600/2624 30007KT P6SM VCSH FEW015 SCT035 BKN100

NVVV 25/01/2020 UTC

TAF NVVV 252220Z 2600/2624 11005KT 9999 FEW020

NCRG 25/01/2020 UTC

TAF NCRG 252329Z 2600/2624
05010KT 9999 -SHRA BKN018 BKN100
TEMPO 2602/2624 3000 TSRA BKN010 FEW017CB

NTAA 25/01/2020 UTC

TAF NTAA 252300Z 2600/2706 05015KT 9999 FEW023 SCT050 BECMG 2604/2606
VRB05KT BECMG 2616/2618 04015KT

NTTG

TAF not available.

NTTO

TAF not available.

NSFA 25/01/2020 UTC

TAF NSFA 252335Z 2600/2624
36010KT 9999 FEW024
PROB40 TEMPO 2612/2621 3000 TSRA BKN015 FEW018CB

ANYN

TAF not available.

AGGH 25/01/2020 UTC

TAF AGGH 252305Z 2600/2624 36010KT 9999 SCT018

T 32 32 31 28 Q 1008 1006 1005 1007

AGGM 25/01/2020 UTC

TAF AGGM 252305Z 2600/2624 23010KT 9999 SCT018

Q 1008 1006 1005 1007

AGGN 25/01/2020 UTC

TAF AGGN 252305Z 2600/2624 25010KT 9999 FEW018

Q 1008 1006 1005 1007

AYPY 26/01/2020 UTC

TAF AYPY 252200Z 2600/2624 34010KT 9999 FEW020

AYNZ

TAF not available.

AYMD

TAF not available.

AYMH

TAF not available.

AYTA

TAF not available.

PKMJ 26/01/2020 UTC

TAF PKMJ 260222Z 2602/2624 05015G25KT P6SM VCSH SCT016 SCT040
BKN120

NGTA 25/01/2020 UTC

TAF NGTA 252337Z 2600/2624
31008KT 9999 SCT020
PROB40 TEMPO 2608/2624 3000 TSRA BKN015 FEW017CB

PTRO 26/01/2020 UTC

TAF PTRO 260108Z 2601/2624 06011G20KT P6SM VCSH SCT016
TEMPO 2601/2605 BKN016
FM260900 06010KT P6SM VCSH SCT016 SCT040

YLHI 25/01/2020 UTC

TAF YLHI 252346Z 2600/2700
04010KT 9999 SCT025
RMK
T 27 27 26 24 Q 1018 1017 1016 1016

YSNF 25/01/2020 UTC

TAF YSNF 252348Z 2600/2700
09016KT 9999 SCT025 SCT035
FM260400 11014KT 9999 -SHRA BKN020
FM260900 10007KT 9999 SCT025 SCT035
FM261800 12012KT 9999 -SHRA FEW015 BKN025
TEMPO 2618/2700 5000 SHRA BKN015
RMK
T 26 25 23 21 Q 1018 1017 1017 1018

Indonesia, Timor Leste, Papua New Guinea

The availability of aerodrome forecasts from overseas locations is dependent on the regular international exchange of data. Some locations may at times be absent. If this problem persists, please advise webav@bom.gov.au

 back to top

WAAA 25/01/2020 UTC

TAF WAAA 252300Z 2600/2706 10004KT 9999 SCT018
BECMG 2603/2605 29010KT
TEMPO 2608/2610 6000 -TSRA FEW017CB
BECMG 2611/2613 10005KT 8000

WAMM 25/01/2020 UTC

TAF WAMM 252300Z 2600/2706 35010KT 9999 SCT022
BECMG 2609/2611 VRB02KT

WAMP

TAF not available.

WAJJ 25/01/2020 UTC

TAF WAJJ 252300Z 2600/2624 26005KT 9999 FEW013
BECMG 2603/2605 27012KT
TEMPO 2607/2611 VCSH FEW013CB FEW014
BECMG 2613/2615 00000KT

WAPP 25/01/2020 UTC

TAF WAPP 252300Z 2600/2624 36005KT 9999 FEW019

WABB 25/01/2020 UTC

TAF WABB 252300Z 2600/2706 32007KT 9999 SCT018
BECMG 2610/2612 00000KT

WPDL 25/01/2020 UTC

TAF WPDL 252238Z 2600/2612
31008KT 9999 SCT030
RMK
T 30 31 31 30 Q 1011 1011 1008 1008

WATT 25/01/2020 UTC

TAF WATT 252300Z 2600/2624 13005KT 8000 SCT017
BECMG 2602/2604 31013KT
PROB30
TEMPO 2605/2609 6000 -TSRA FEW016CB BKN016
BECMG 2613/2615 16005KT

WIII 25/01/2020 UTC

TAF WIII 252300Z 2600/2706 35012KT 8000 SCT020 TEMPO 2604/2608 5000
-TSRA FEW018CB BKN020 BECMG 2615/2617 23005KT 3000 BR

WIHH 25/01/2020 UTC

TAF WIHH 252300Z 2600/2700 29008KT 6000 SCT018
TEMPO 2606/2609 3000 -RA FEW016CB BKN017
BECMG 2611/2613 17005KT 5000 HZ

WIMM 25/01/2020 UTC

TAF WIMM 252300Z 2600/2700 VRB07KT 8000 SCT018
BECMG 2614/2616 25004KT 4000 HZ

WARR 25/01/2020 UTC

TAF WARR 252300Z 2600/2700 25005KT 4000 HZ SCT020
BECMG 2601/2603 09010KT 9999 NSW FEW020CB
TEMPO 2609/2612 4000 TSRA SCT018CB
BECMG 2612/2614 27005KT 4000 HZ SCT020

WADD 25/01/2020 UTC

TAF WADD 252300Z 2600/2700 VRB05KT 9999 SCT016
TEMPO 2606/2610 FEW016CB

AYPY 26/01/2020 UTC

TAF AYPY 252200Z 2600/2624 34010KT 9999 FEW020

AYNZ

TAF not available.

AYMH

TAF not available.

AYMD

TAF not available.

AYHK

TAF not available.

AYTK

TAF not available.

AYVN

TAF not available.

AYWK

TAF not available.

AYGA

TAF not available.

AYDU

TAF not available.

AYMS

TAF not available.

AYRB

TAF not available.

AYTB

TAF not available.

AYKI

TAF not available.

AYKT

TAF not available.

AYBK

TAF not available.

AYKM

TAF not available.

AYKY

TAF not available.

AYMO

TAF not available.

AYKV

TAF not available.

Accessing this Service

By entering this site, you acknowledge that this information is produced solely for use by the aviation industry, and you are aware that any information for the purposes of flight planning should be obtained from Airservices Australia.